createdAt,value
2019-03-27T00:01:50.748Z,14.37
2019-03-27T00:04:54.686Z,17.30
2019-03-27T00:07:58.588Z,15.30
2019-03-27T00:11:02.429Z,16.67
2019-03-27T00:14:06.305Z,17.20
2019-03-27T00:17:10.167Z,15.23
2019-03-27T00:20:14.168Z,14.73
2019-03-27T00:23:18.024Z,12.70
2019-03-27T00:26:21.899Z,12.90
2019-03-27T00:29:25.778Z,16.93
2019-03-27T00:32:29.685Z,17.13
2019-03-27T00:35:33.558Z,17.07
2019-03-27T00:38:37.386Z,17.00
2019-03-27T00:41:41.256Z,14.37
2019-03-27T00:44:45.142Z,17.37
2019-03-27T00:47:49.031Z,13.50
2019-03-27T00:50:52.975Z,18.63
2019-03-27T00:53:56.841Z,16.93
2019-03-27T00:57:00.746Z,14.63
2019-03-27T01:00:10.321Z,16.63
2019-03-27T01:03:14.172Z,17.37
2019-03-27T01:06:18.056Z,14.20
2019-03-27T01:09:22.053Z,15.60
2019-03-27T01:12:26.826Z,13.20
2019-03-27T01:15:39.621Z,19.23
2019-03-27T01:18:36.165Z,15.67
2019-03-27T01:21:40.006Z,18.10
2019-03-27T01:24:43.891Z,16.23
2019-03-27T01:27:47.766Z,19.10
2019-03-27T01:30:51.631Z,18.70
2019-03-27T01:33:55.541Z,18.93
2019-03-27T01:36:59.427Z,16.77
2019-03-27T01:40:03.286Z,16.70
2019-03-27T01:43:07.191Z,17.53
2019-03-27T01:46:11.061Z,17.17
2019-03-27T01:49:14.941Z,16.97
2019-03-27T01:52:18.821Z,17.27
2019-03-27T01:55:22.726Z,19.40
2019-03-27T01:58:26.638Z,19.83
2019-03-27T02:01:30.444Z,20.23
2019-03-27T02:04:34.310Z,18.67
2019-03-27T02:07:38.172Z,20.10
2019-03-27T02:10:42.051Z,24.73
2019-03-27T02:13:46.032Z,23.57
2019-03-27T02:16:49.951Z,24.17
2019-03-27T02:19:53.846Z,21.50
2019-03-27T02:22:57.681Z,17.20
2019-03-27T02:26:01.581Z,21.80
2019-03-27T02:29:05.407Z,19.70
2019-03-27T02:32:09.308Z,23.90
2019-03-27T02:35:13.152Z,17.73
2019-03-27T02:38:17.034Z,22.03
2019-03-27T02:41:20.887Z,18.63
2019-03-27T02:44:24.791Z,18.90
2019-03-27T02:47:28.651Z,17.73
2019-03-27T02:50:32.492Z,18.07
2019-03-27T02:53:36.492Z,17.63
2019-03-27T02:56:40.331Z,18.83
2019-03-27T02:59:44.225Z,17.53
2019-03-27T03:02:48.052Z,15.53
2019-03-27T03:05:51.927Z,19.53
2019-03-27T03:08:55.822Z,16.57
2019-03-27T03:11:59.828Z,17.40
2019-03-27T03:15:05.737Z,16.77
2019-03-27T03:18:09.588Z,21.50
2019-03-27T03:21:13.467Z,17.63
2019-03-27T03:24:17.325Z,19.30
2019-03-27T03:27:21.214Z,16.63
2019-03-27T03:30:25.202Z,20.70
2019-03-27T03:33:29.091Z,28.80
2019-03-27T03:36:32.938Z,29.80
2019-03-27T03:39:36.787Z,29.77
2019-03-27T03:42:40.667Z,20.73
2019-03-27T03:45:46.042Z,22.00
2019-03-27T03:48:49.881Z,21.13
2019-03-27T03:51:53.752Z,22.60
2019-03-27T03:54:57.924Z,42.93
2019-03-27T03:58:02.432Z,41.60
2019-03-27T04:01:07.152Z,35.03
2019-03-27T04:04:11.657Z,26.40
2019-03-27T04:07:15.502Z,19.10
2019-03-27T04:10:19.429Z,18.70
2019-03-27T04:13:23.331Z,18.90
2019-03-27T04:16:27.269Z,28.10
2019-03-27T04:19:31.120Z,22.43
2019-03-27T04:22:35.612Z,22.87
2019-03-27T04:26:07.314Z,16.70
2019-03-27T04:28:45.617Z,22.63
2019-03-27T04:31:49.456Z,17.10
2019-03-27T04:34:53.337Z,18.20
2019-03-27T04:37:57.233Z,21.57
2019-03-27T04:41:01.066Z,23.93
2019-03-27T04:44:04.977Z,20.77
2019-03-27T04:47:08.815Z,20.90
2019-03-27T04:50:12.701Z,21.00
2019-03-27T04:53:16.526Z,19.03
2019-03-27T04:56:20.426Z,23.73
2019-03-27T04:59:24.260Z,21.23
2019-03-27T05:02:28.181Z,21.37
2019-03-27T05:05:32.077Z,23.47
2019-03-27T05:08:36.019Z,18.53
2019-03-27T05:11:39.907Z,21.13
2019-03-27T05:14:43.751Z,25.23
2019-03-27T05:17:47.612Z,19.93
2019-03-27T05:20:51.516Z,19.70
2019-03-27T05:23:55.372Z,24.50
2019-03-27T05:26:59.261Z,24.57
2019-03-27T05:30:03.241Z,24.00
2019-03-27T05:33:07.116Z,24.37
2019-03-27T05:36:11.012Z,21.67
2019-03-27T05:39:14.902Z,19.00
2019-03-27T05:42:18.850Z,19.20
2019-03-27T05:45:22.697Z,24.20
2019-03-27T05:48:26.586Z,26.20
2019-03-27T05:51:30.571Z,26.97
2019-03-27T05:54:34.405Z,23.80
2019-03-27T05:57:38.323Z,22.70
2019-03-27T06:00:42.158Z,25.03
2019-03-27T06:03:46.071Z,17.40
2019-03-27T06:06:50.022Z,22.37
2019-03-27T06:09:53.913Z,21.00
2019-03-27T06:12:57.810Z,19.63
2019-03-27T06:16:01.657Z,20.90
2019-03-27T06:19:05.548Z,19.53
2019-03-27T06:22:09.446Z,22.30
2019-03-27T06:25:13.457Z,24.65
2019-03-27T06:28:17.301Z,21.53
2019-03-27T06:31:21.336Z,22.87
2019-03-27T06:34:25.241Z,25.97
2019-03-27T06:37:29.183Z,23.80
2019-03-27T06:40:33.122Z,21.00
2019-03-27T06:43:36.981Z,20.20
2019-03-27T06:46:40.841Z,22.48
2019-03-27T06:49:44.909Z,23.67
2019-03-27T06:52:48.782Z,26.12
2019-03-27T06:55:53.715Z,17.50
2019-03-27T06:58:57.613Z,18.30
2019-03-27T07:02:01.661Z,26.57
2019-03-27T07:05:06.932Z,21.17
2019-03-27T07:08:10.869Z,19.12
2019-03-27T07:11:14.736Z,18.92
2019-03-27T07:14:18.634Z,23.70
2019-03-27T07:17:22.835Z,17.45
2019-03-27T07:20:26.756Z,25.08
2019-03-27T07:23:30.730Z,25.17
2019-03-27T07:26:34.624Z,19.52
2019-03-27T07:29:38.483Z,17.57
2019-03-27T07:32:42.382Z,23.18
2019-03-27T07:35:46.220Z,20.20
2019-03-27T07:38:50.124Z,25.03
2019-03-27T07:41:53.936Z,20.60
2019-03-27T07:44:57.819Z,19.13
2019-03-27T07:48:01.669Z,19.27
2019-03-27T07:51:07.122Z,15.72
2019-03-27T07:54:11.016Z,15.50
2019-03-27T07:57:14.904Z,18.37
2019-03-27T08:00:21.911Z,18.50
2019-03-27T08:03:25.813Z,19.15
2019-03-27T08:06:29.666Z,18.73
2019-03-27T08:09:33.562Z,20.17
2019-03-27T08:12:37.456Z,19.17
2019-03-27T08:15:41.479Z,24.23
2019-03-27T08:18:45.347Z,22.90
2019-03-27T08:21:49.201Z,20.23
2019-03-27T08:24:53.082Z,23.80
2019-03-27T08:27:56.947Z,22.13
2019-03-27T08:31:00.800Z,24.40
2019-03-27T08:34:04.676Z,17.00
2019-03-27T08:37:08.550Z,23.77
2019-03-27T08:40:13.812Z,16.90
2019-03-27T08:43:21.512Z,19.50
2019-03-27T08:46:23.185Z,22.03
2019-03-27T08:49:27.116Z,17.67
2019-03-27T08:52:30.941Z,17.37
2019-03-27T08:55:34.845Z,14.80
2019-03-27T08:58:38.838Z,13.80
2019-03-27T09:01:42.787Z,15.90
2019-03-27T09:04:46.627Z,18.37
2019-03-27T09:07:50.566Z,17.40
2019-03-27T09:10:54.457Z,16.97
2019-03-27T09:13:58.331Z,18.23
2019-03-27T09:17:02.247Z,12.70
2019-03-27T09:20:07.647Z,15.03
2019-03-27T09:23:11.483Z,14.97
2019-03-27T09:26:15.446Z,16.10
2019-03-27T09:29:19.283Z,16.13
2019-03-27T09:32:23.173Z,14.60
2019-03-27T09:35:27.045Z,12.00
2019-03-27T09:38:30.961Z,16.90
2019-03-27T09:41:34.835Z,14.60
2019-03-27T09:44:38.708Z,12.90
2019-03-27T09:47:42.566Z,14.30
2019-03-27T09:50:46.459Z,11.27
2019-03-27T09:53:53.049Z,12.57
2019-03-27T09:56:55.812Z,13.60
2019-03-27T09:59:59.649Z,11.07
2019-03-27T10:03:03.627Z,9.60
2019-03-27T10:06:07.576Z,11.13
2019-03-27T10:09:11.467Z,10.60
2019-03-27T10:12:15.297Z,8.73
2019-03-27T10:15:19.335Z,9.47
2019-03-27T10:18:23.323Z,10.20
2019-03-27T10:21:27.191Z,8.07
2019-03-27T10:24:31.192Z,7.93
2019-03-27T10:27:35.127Z,9.13
2019-03-27T10:30:38.943Z,11.87
2019-03-27T10:33:42.842Z,8.30
2019-03-27T10:36:46.721Z,6.47
2019-03-27T10:39:50.662Z,7.17
2019-03-27T10:42:54.528Z,9.88
2019-03-27T10:46:08.159Z,8.98
2019-03-27T10:49:11.991Z,6.58
2019-03-27T10:52:16.026Z,7.58
2019-03-27T10:55:19.888Z,12.20
2019-03-27T10:58:24.377Z,9.40
2019-03-27T11:01:28.337Z,8.90
2019-03-27T11:04:32.239Z,8.03
2019-03-27T11:07:36.071Z,8.63
2019-03-27T11:10:39.996Z,11.87
2019-03-27T11:13:43.841Z,11.53
2019-03-27T11:16:47.766Z,11.63
2019-03-27T11:19:51.751Z,11.73
2019-03-27T11:22:55.704Z,13.07
2019-03-27T11:25:59.543Z,15.13
2019-03-27T11:29:03.450Z,14.00
2019-03-27T11:32:07.309Z,12.77
2019-03-27T11:35:12.330Z,11.67
2019-03-27T11:38:16.170Z,13.50
2019-03-27T11:41:20.047Z,11.60
2019-03-27T11:44:23.902Z,13.27
2019-03-27T11:47:27.782Z,10.20
2019-03-27T11:50:44.103Z,10.73
2019-03-27T11:53:37.208Z,12.00
2019-03-27T11:56:41.230Z,12.60
2019-03-27T11:59:53.930Z,10.10
2019-03-27T12:02:50.703Z,10.87
2019-03-27T12:05:54.588Z,10.43
2019-03-27T12:08:58.532Z,8.97
2019-03-27T12:12:02.453Z,8.53
2019-03-27T12:15:08.571Z,8.97
2019-03-27T12:18:14.501Z,13.23
2019-03-27T12:21:18.347Z,9.97
2019-03-27T12:24:22.302Z,9.37
2019-03-27T12:27:27.052Z,14.87
2019-03-27T12:30:30.926Z,9.40
2019-03-27T12:33:34.786Z,10.00
2019-03-27T12:36:38.685Z,11.27
2019-03-27T12:39:42.849Z,12.00
2019-03-27T12:42:46.742Z,12.30
2019-03-27T12:45:52.142Z,16.07
2019-03-27T12:48:56.123Z,19.83
2019-03-27T12:51:59.977Z,12.60
2019-03-27T12:55:05.854Z,15.57
2019-03-27T12:58:11.711Z,12.60
2019-03-27T13:01:15.259Z,10.63
2019-03-27T13:04:19.151Z,13.77
2019-03-27T13:07:23.064Z,12.90
2019-03-27T13:10:26.900Z,16.47
2019-03-27T13:13:30.833Z,15.10
2019-03-27T13:16:34.877Z,19.70
2019-03-27T13:19:38.826Z,14.97
2019-03-27T13:22:42.687Z,17.40
2019-03-27T13:25:46.577Z,15.83
2019-03-27T13:28:50.447Z,17.53
2019-03-27T13:31:54.391Z,17.10
2019-03-27T13:34:59.791Z,12.73
2019-03-27T13:38:03.642Z,17.10
2019-03-27T13:41:07.502Z,24.63
2019-03-27T13:44:11.452Z,12.50
2019-03-27T13:47:15.383Z,12.63
2019-03-27T13:50:20.467Z,12.13
2019-03-27T13:53:24.305Z,13.10
2019-03-27T13:56:28.250Z,11.13
2019-03-27T13:59:32.125Z,12.77
2019-03-27T14:02:36.042Z,14.87
2019-03-27T14:05:39.872Z,11.03
2019-03-27T14:08:43.749Z,10.40
2019-03-27T14:11:47.612Z,11.53
2019-03-27T14:14:51.567Z,13.33
2019-03-27T14:17:55.761Z,12.03
2019-03-27T14:20:59.701Z,16.37
2019-03-27T14:24:03.542Z,12.23
2019-03-27T14:27:07.482Z,10.53
2019-03-27T14:30:15.129Z,11.30
2019-03-27T14:33:19.287Z,12.27
2019-03-27T14:36:23.434Z,11.23
2019-03-27T14:39:27.300Z,12.37
2019-03-27T14:42:31.135Z,17.43
2019-03-27T14:45:35.032Z,11.80
2019-03-27T14:48:38.903Z,12.60
2019-03-27T14:51:42.782Z,15.07
2019-03-27T14:54:46.704Z,13.33
2019-03-27T14:57:50.582Z,12.77
2019-03-27T15:00:54.525Z,12.40
2019-03-27T15:03:58.596Z,11.17
2019-03-27T15:07:02.438Z,17.77
2019-03-27T15:10:08.581Z,14.40
2019-03-27T15:13:15.183Z,13.43
2019-03-27T15:16:17.909Z,14.90
2019-03-27T15:19:22.854Z,13.73
2019-03-27T15:22:27.965Z,13.80
2019-03-27T15:25:31.869Z,13.03
2019-03-27T15:28:35.721Z,16.20
2019-03-27T15:31:39.584Z,14.13
2019-03-27T15:34:43.455Z,16.60
2019-03-27T15:37:47.484Z,14.95
2019-03-27T15:40:51.457Z,23.60
2019-03-27T15:43:55.356Z,19.40
2019-03-27T15:46:59.243Z,18.27
2019-03-27T15:50:03.813Z,17.17
2019-03-27T15:53:07.681Z,14.37
2019-03-27T15:56:11.537Z,22.27
2019-03-27T15:59:16.507Z,22.80
2019-03-27T16:02:20.551Z,19.37
2019-03-27T16:05:24.462Z,23.87
2019-03-27T16:08:28.357Z,18.10
2019-03-27T16:11:32.312Z,18.50
2019-03-27T16:14:36.257Z,19.40
2019-03-27T16:17:40.143Z,19.00
2019-03-27T16:20:44.101Z,20.07
2019-03-27T16:23:48.103Z,18.33
2019-03-27T16:27:03.880Z,19.50
2019-03-27T16:29:57.638Z,24.30
2019-03-27T16:33:01.942Z,28.47
2019-03-27T16:36:05.933Z,23.37
2019-03-27T16:39:09.982Z,24.20
2019-03-27T16:42:13.891Z,23.40
2019-03-27T16:45:18.189Z,26.60
2019-03-27T16:48:22.202Z,38.23
2019-03-27T16:51:26.155Z,34.17
2019-03-27T16:54:30.200Z,30.03
2019-03-27T16:57:34.215Z,34.50
2019-03-27T17:00:39.123Z,31.77
2019-03-27T17:03:43.057Z,33.87
2019-03-27T17:06:46.995Z,36.27
2019-03-27T17:09:50.861Z,39.10
2019-03-27T17:12:54.842Z,34.17
2019-03-27T17:15:58.675Z,37.13
2019-03-27T17:19:02.607Z,52.03
2019-03-27T17:22:18.989Z,53.53
2019-03-27T17:25:12.167Z,45.10
2019-03-27T17:28:16.171Z,57.37
2019-03-27T17:31:20.638Z,52.07
2019-03-27T17:34:24.927Z,56.67
2019-03-27T17:37:29.203Z,55.63
2019-03-27T17:40:33.275Z,57.77
2019-03-27T17:43:37.281Z,67.27
2019-03-27T17:46:41.373Z,71.93
2019-03-27T17:49:46.047Z,75.60
2019-03-27T17:52:49.930Z,72.07
2019-03-27T17:55:54.105Z,67.03
2019-03-27T17:58:58.020Z,68.20
2019-03-27T18:02:02.091Z,92.37
2019-03-27T18:05:07.576Z,89.13
2019-03-27T18:08:11.656Z,88.43
2019-03-27T18:11:17.037Z,86.53
2019-03-27T18:14:21.117Z,80.57
2019-03-27T18:17:26.562Z,74.63
2019-03-27T18:20:30.494Z,85.17
2019-03-27T18:23:45.142Z,84.73
2019-03-27T18:26:40.396Z,92.37
2019-03-27T18:29:44.430Z,63.27
2019-03-27T18:32:48.466Z,65.80
2019-03-27T18:35:52.662Z,62.43
2019-03-27T18:38:57.221Z,72.07
2019-03-27T18:42:01.101Z,76.93
2019-03-27T18:45:07.632Z,71.67
2019-03-27T18:48:11.567Z,74.10
2019-03-27T18:51:15.591Z,84.97
2019-03-27T18:54:19.474Z,90.93
2019-03-27T18:57:27.489Z,83.60
2019-03-27T19:00:31.597Z,88.37
2019-03-27T19:03:35.666Z,87.83
2019-03-27T19:06:39.575Z,83.73
2019-03-27T19:09:43.532Z,94.00
2019-03-27T19:12:47.432Z,92.10
2019-03-27T19:15:51.626Z,99.27
2019-03-27T19:18:55.686Z,103.57
2019-03-27T19:21:59.660Z,101.47
2019-03-27T19:25:04.247Z,93.43
2019-03-27T19:28:08.203Z,95.57
2019-03-27T19:31:12.142Z,92.53
2019-03-27T19:34:16.197Z,105.80
2019-03-27T19:37:20.334Z,124.57
2019-03-27T19:40:24.365Z,110.03
2019-03-27T19:43:28.405Z,106.77
2019-03-27T19:46:32.465Z,113.07
2019-03-27T19:49:36.351Z,101.87
2019-03-27T19:52:40.332Z,99.13
2019-03-27T19:55:44.296Z,95.53
2019-03-27T19:58:49.206Z,95.13
2019-03-27T20:01:53.358Z,98.03
2019-03-27T20:04:58.796Z,85.80
2019-03-27T20:08:04.384Z,94.83
2019-03-27T20:11:08.431Z,90.20
2019-03-27T20:14:12.813Z,88.60
2019-03-27T20:17:16.942Z,86.57
2019-03-27T20:20:21.014Z,87.63
2019-03-27T20:23:24.961Z,83.00
2019-03-27T20:26:28.925Z,77.63
2019-03-27T20:29:32.812Z,87.30
2019-03-27T20:32:38.348Z,87.77
2019-03-27T20:35:42.248Z,71.93
2019-03-27T20:38:46.256Z,82.50
2019-03-27T20:41:50.266Z,79.53
2019-03-27T20:44:54.221Z,77.07
2019-03-27T20:47:58.258Z,80.40
2019-03-27T20:51:02.243Z,77.17
2019-03-27T20:54:06.182Z,79.33
2019-03-27T20:57:10.066Z,75.93
2019-03-27T21:00:14.888Z,74.37
2019-03-27T21:03:18.842Z,73.03
2019-03-27T21:06:23.736Z,69.97
2019-03-27T21:09:27.563Z,80.50
2019-03-27T21:12:31.462Z,79.53
2019-03-27T21:15:38.456Z,75.77
2019-03-27T21:18:41.233Z,71.90
2019-03-27T21:21:45.058Z,72.30
2019-03-27T21:24:48.925Z,75.03
2019-03-27T21:27:52.804Z,69.93
2019-03-27T21:30:56.687Z,73.80
2019-03-27T21:34:00.615Z,75.17
2019-03-27T21:37:04.496Z,79.33
2019-03-27T21:40:09.670Z,73.43
2019-03-27T21:43:13.525Z,76.23
2019-03-27T21:46:17.388Z,75.93
2019-03-27T21:49:21.301Z,73.37
2019-03-27T21:52:25.748Z,71.23
2019-03-27T21:55:41.877Z,70.90
2019-03-27T21:58:35.186Z,78.97
2019-03-27T22:01:39.005Z,77.43
2019-03-27T22:04:42.921Z,72.27
2019-03-27T22:07:46.732Z,74.73
2019-03-27T22:10:50.582Z,73.07
2019-03-27T22:13:54.472Z,70.53
2019-03-27T22:16:58.305Z,75.47
2019-03-27T22:20:02.173Z,75.30
2019-03-27T22:23:06.028Z,72.20
2019-03-27T22:26:09.929Z,83.67
2019-03-27T22:29:13.726Z,71.90
2019-03-27T22:32:17.586Z,72.47
2019-03-27T22:35:21.431Z,70.57
2019-03-27T22:38:25.325Z,81.70
2019-03-27T22:41:29.167Z,75.50
2019-03-27T22:44:33.030Z,71.77
2019-03-27T22:47:36.848Z,77.97
2019-03-27T22:50:40.729Z,74.37
2019-03-27T22:53:44.561Z,72.80
2019-03-27T22:56:48.436Z,71.60
2019-03-27T22:59:52.570Z,70.20
2019-03-27T23:02:56.418Z,72.13
2019-03-27T23:06:00.239Z,78.00
2019-03-27T23:09:04.620Z,80.80
2019-03-27T23:12:08.459Z,80.97
2019-03-27T23:15:12.431Z,72.20
2019-03-27T23:18:16.295Z,79.90
2019-03-27T23:21:20.165Z,76.67
2019-03-27T23:24:24.008Z,76.13
2019-03-27T23:27:27.870Z,79.00
2019-03-27T23:30:31.703Z,82.13
2019-03-27T23:33:35.559Z,76.20
2019-03-27T23:36:39.389Z,78.20
2019-03-27T23:39:43.266Z,82.30
2019-03-27T23:42:47.102Z,89.57
2019-03-27T23:45:50.976Z,87.70
2019-03-27T23:48:54.800Z,82.30
2019-03-27T23:51:58.669Z,83.70
2019-03-27T23:55:02.506Z,87.63
2019-03-27T23:58:06.410Z,85.47
